sensor_id;sensor_type;location;lat;lon;timestamp;P1;durP1;ratioP1;P2;durP2;ratioP2
20729;SDS011;10526;50.850;12.928;2023-06-14T00:02:32;13.10;;;6.43;;
20729;SDS011;10526;50.850;12.928;2023-06-14T00:06:55;11.55;;;4.90;;
20729;SDS011;10526;50.850;12.928;2023-06-14T00:11:17;14.70;;;4.88;;
20729;SDS011;10526;50.850;12.928;2023-06-14T00:15:39;14.18;;;6.03;;
20729;SDS011;10526;50.850;12.928;2023-06-14T00:20:02;10.82;;;4.60;;
20729;SDS011;10526;50.850;12.928;2023-06-14T00:24:28;11.57;;;5.38;;
20729;SDS011;10526;50.850;12.928;2023-06-14T00:28:51;10.27;;;4.82;;
20729;SDS011;10526;50.850;12.928;2023-06-14T00:33:15;12.70;;;5.57;;
20729;SDS011;10526;50.850;12.928;2023-06-14T00:37:38;11.63;;;5.57;;
20729;SDS011;10526;50.850;12.928;2023-06-14T00:42:02;14.90;;;5.82;;
20729;SDS011;10526;50.850;12.928;2023-06-14T00:46:24;10.10;;;5.07;;
20729;SDS011;10526;50.850;12.928;2023-06-14T00:50:49;11.63;;;5.45;;
20729;SDS011;10526;50.850;12.928;2023-06-14T00:55:13;11.75;;;5.78;;
20729;SDS011;10526;50.850;12.928;2023-06-14T00:59:45;13.30;;;6.22;;
20729;SDS011;10526;50.850;12.928;2023-06-14T01:04:09;12.68;;;6.63;;
20729;SDS011;10526;50.850;12.928;2023-06-14T01:08:34;11.63;;;6.07;;
20729;SDS011;10526;50.850;12.928;2023-06-14T01:13:39;14.00;;;6.82;;
20729;SDS011;10526;50.850;12.928;2023-06-14T01:18:07;15.90;;;6.03;;
20729;SDS011;10526;50.850;12.928;2023-06-14T01:22:42;10.65;;;5.85;;
20729;SDS011;10526;50.850;12.928;2023-06-14T01:27:15;15.90;;;7.15;;
20729;SDS011;10526;50.850;12.928;2023-06-14T01:31:37;12.45;;;6.45;;
20729;SDS011;10526;50.850;12.928;2023-06-14T01:36:02;14.70;;;6.80;;
20729;SDS011;10526;50.850;12.928;2023-06-14T01:40:28;20.05;;;6.35;;
20729;SDS011;10526;50.850;12.928;2023-06-14T01:44:51;17.45;;;7.05;;
20729;SDS011;10526;50.850;12.928;2023-06-14T01:49:15;12.60;;;6.53;;
20729;SDS011;10526;50.850;12.928;2023-06-14T01:53:37;13.15;;;6.32;;
20729;SDS011;10526;50.850;12.928;2023-06-14T01:58:00;13.95;;;6.93;;
20729;SDS011;10526;50.850;12.928;2023-06-14T02:02:22;17.35;;;7.30;;
20729;SDS011;10526;50.850;12.928;2023-06-14T02:06:44;12.45;;;6.43;;
20729;SDS011;10526;50.850;12.928;2023-06-14T02:11:06;17.30;;;6.95;;
20729;SDS011;10526;50.850;12.928;2023-06-14T02:15:29;20.65;;;8.38;;
20729;SDS011;10526;50.850;12.928;2023-06-14T02:19:55;13.43;;;6.53;;
20729;SDS011;10526;50.850;12.928;2023-06-14T02:24:19;13.75;;;7.18;;
20729;SDS011;10526;50.850;12.928;2023-06-14T02:28:42;13.75;;;7.60;;
20729;SDS011;10526;50.850;12.928;2023-06-14T02:33:04;17.33;;;8.05;;
20729;SDS011;10526;50.850;12.928;2023-06-14T02:37:26;14.95;;;7.75;;
20729;SDS011;10526;50.850;12.928;2023-06-14T02:41:49;24.55;;;14.10;;
20729;SDS011;10526;50.850;12.928;2023-06-14T02:46:11;14.65;;;8.30;;
20729;SDS011;10526;50.850;12.928;2023-06-14T02:50:33;16.40;;;7.28;;
20729;SDS011;10526;50.850;12.928;2023-06-14T02:54:55;33.45;;;16.83;;
20729;SDS011;10526;50.850;12.928;2023-06-14T02:59:18;15.27;;;7.75;;
20729;SDS011;10526;50.850;12.928;2023-06-14T03:03:40;15.60;;;7.43;;
20729;SDS011;10526;50.850;12.928;2023-06-14T03:08:02;13.18;;;6.75;;
20729;SDS011;10526;50.850;12.928;2023-06-14T03:12:25;15.63;;;7.60;;
20729;SDS011;10526;50.850;12.928;2023-06-14T03:16:47;15.55;;;7.43;;
20729;SDS011;10526;50.850;12.928;2023-06-14T03:21:13;21.65;;;10.07;;
20729;SDS011;10526;50.850;12.928;2023-06-14T03:25:48;30.35;;;7.55;;
20729;SDS011;10526;50.850;12.928;2023-06-14T03:30:11;17.20;;;7.07;;
20729;SDS011;10526;50.850;12.928;2023-06-14T03:34:35;13.02;;;6.55;;
20729;SDS011;10526;50.850;12.928;2023-06-14T03:39:03;13.43;;;5.00;;
20729;SDS011;10526;50.850;12.928;2023-06-14T03:43:25;17.20;;;4.65;;
20729;SDS011;10526;50.850;12.928;2023-06-14T03:47:48;12.27;;;4.00;;
20729;SDS011;10526;50.850;12.928;2023-06-14T03:52:12;20.75;;;5.05;;
20729;SDS011;10526;50.850;12.928;2023-06-14T03:56:37;7.60;;;3.67;;
20729;SDS011;10526;50.850;12.928;2023-06-14T04:01:03;15.73;;;4.80;;
20729;SDS011;10526;50.850;12.928;2023-06-14T04:05:25;12.65;;;4.55;;
20729;SDS011;10526;50.850;12.928;2023-06-14T04:09:49;10.75;;;3.45;;
20729;SDS011;10526;50.850;12.928;2023-06-14T04:14:12;9.18;;;4.35;;
20729;SDS011;10526;50.850;12.928;2023-06-14T04:18:33;10.57;;;3.80;;
20729;SDS011;10526;50.850;12.928;2023-06-14T04:22:56;8.00;;;3.42;;
20729;SDS011;10526;50.850;12.928;2023-06-14T04:27:19;10.10;;;3.83;;
20729;SDS011;10526;50.850;12.928;2023-06-14T04:31:43;8.75;;;3.95;;
20729;SDS011;10526;50.850;12.928;2023-06-14T04:36:07;8.10;;;3.40;;
20729;SDS011;10526;50.850;12.928;2023-06-14T04:40:34;5.68;;;2.83;;
20729;SDS011;10526;50.850;12.928;2023-06-14T04:45:07;9.60;;;3.35;;
20729;SDS011;10526;50.850;12.928;2023-06-14T04:49:32;7.68;;;3.40;;
20729;SDS011;10526;50.850;12.928;2023-06-14T04:53:56;8.77;;;3.28;;
20729;SDS011;10526;50.850;12.928;2023-06-14T04:58:22;8.27;;;3.63;;
20729;SDS011;10526;50.850;12.928;2023-06-14T05:02:45;10.57;;;3.30;;
20729;SDS011;10526;50.850;12.928;2023-06-14T05:07:09;9.32;;;3.42;;
20729;SDS011;10526;50.850;12.928;2023-06-14T05:11:32;7.97;;;3.55;;
20729;SDS011;10526;50.850;12.928;2023-06-14T05:15:54;8.73;;;3.42;;
20729;SDS011;10526;50.850;12.928;2023-06-14T05:20:16;9.30;;;3.80;;
20729;SDS011;10526;50.850;12.928;2023-06-14T05:24:38;8.48;;;3.60;;
20729;SDS011;10526;50.850;12.928;2023-06-14T05:29:00;8.95;;;3.53;;
20729;SDS011;10526;50.850;12.928;2023-06-14T05:33:23;8.82;;;3.22;;
20729;SDS011;10526;50.850;12.928;2023-06-14T05:37:45;8.43;;;3.00;;
20729;SDS011;10526;50.850;12.928;2023-06-14T05:42:08;6.65;;;3.10;;
20729;SDS011;10526;50.850;12.928;2023-06-14T05:46:30;6.10;;;2.83;;
20729;SDS011;10526;50.850;12.928;2023-06-14T05:50:53;6.22;;;2.83;;
20729;SDS011;10526;50.850;12.928;2023-06-14T05:55:16;6.10;;;3.30;;
20729;SDS011;10526;50.850;12.928;2023-06-14T05:59:39;8.85;;;3.20;;
20729;SDS011;10526;50.850;12.928;2023-06-14T06:04:01;5.53;;;2.80;;
20729;SDS011;10526;50.850;12.928;2023-06-14T06:08:23;11.30;;;3.13;;
20729;SDS011;10526;50.850;12.928;2023-06-14T06:12:45;7.80;;;2.90;;
20729;SDS011;10526;50.850;12.928;2023-06-14T06:17:08;10.05;;;3.35;;
20729;SDS011;10526;50.850;12.928;2023-06-14T06:21:31;5.13;;;2.70;;
20729;SDS011;10526;50.850;12.928;2023-06-14T06:25:53;7.90;;;3.42;;
20729;SDS011;10526;50.850;12.928;2023-06-14T06:30:15;5.55;;;2.50;;
20729;SDS011;10526;50.850;12.928;2023-06-14T06:34:37;16.95;;;3.17;;
20729;SDS011;10526;50.850;12.928;2023-06-14T06:39:00;7.95;;;3.20;;
20729;SDS011;10526;50.850;12.928;2023-06-14T06:43:22;6.65;;;3.10;;
20729;SDS011;10526;50.850;12.928;2023-06-14T06:47:44;9.73;;;3.60;;
20729;SDS011;10526;50.850;12.928;2023-06-14T06:52:06;6.93;;;3.28;;
20729;SDS011;10526;50.850;12.928;2023-06-14T06:56:29;9.63;;;3.78;;
20729;SDS011;10526;50.850;12.928;2023-06-14T07:00:52;6.40;;;2.95;;
20729;SDS011;10526;50.850;12.928;2023-06-14T07:05:14;5.57;;;3.25;;
20729;SDS011;10526;50.850;12.928;2023-06-14T07:09:37;11.43;;;3.30;;
20729;SDS011;10526;50.850;12.928;2023-06-14T07:13:59;9.65;;;4.18;;
20729;SDS011;10526;50.850;12.928;2023-06-14T07:18:21;9.60;;;3.83;;
20729;SDS011;10526;50.850;12.928;2023-06-14T07:22:43;9.93;;;3.83;;
20729;SDS011;10526;50.850;12.928;2023-06-14T07:27:05;6.22;;;3.47;;
20729;SDS011;10526;50.850;12.928;2023-06-14T07:31:28;10.35;;;3.58;;
20729;SDS011;10526;50.850;12.928;2023-06-14T07:35:51;7.45;;;3.45;;
20729;SDS011;10526;50.850;12.928;2023-06-14T07:40:14;8.05;;;3.33;;
20729;SDS011;10526;50.850;12.928;2023-06-14T07:44:36;7.93;;;3.47;;
20729;SDS011;10526;50.850;12.928;2023-06-14T07:48:58;11.40;;;3.40;;
20729;SDS011;10526;50.850;12.928;2023-06-14T07:53:21;8.77;;;4.22;;
20729;SDS011;10526;50.850;12.928;2023-06-14T07:57:43;6.32;;;3.35;;
20729;SDS011;10526;50.850;12.928;2023-06-14T08:02:05;8.82;;;3.08;;
20729;SDS011;10526;50.850;12.928;2023-06-14T08:06:27;6.93;;;3.50;;
20729;SDS011;10526;50.850;12.928;2023-06-14T08:10:50;7.18;;;3.30;;
20729;SDS011;10526;50.850;12.928;2023-06-14T08:15:12;9.80;;;3.72;;
20729;SDS011;10526;50.850;12.928;2023-06-14T08:19:35;6.57;;;3.40;;
20729;SDS011;10526;50.850;12.928;2023-06-14T08:23:58;6.28;;;3.30;;
20729;SDS011;10526;50.850;12.928;2023-06-14T08:28:20;8.65;;;3.10;;
20729;SDS011;10526;50.850;12.928;2023-06-14T08:32:42;7.65;;;3.10;;
20729;SDS011;10526;50.850;12.928;2023-06-14T08:37:05;11.98;;;2.95;;
20729;SDS011;10526;50.850;12.928;2023-06-14T08:41:28;9.95;;;3.00;;
20729;SDS011;10526;50.850;12.928;2023-06-14T08:45:52;7.85;;;3.05;;
20729;SDS011;10526;50.850;12.928;2023-06-14T08:50:23;8.00;;;2.75;;
20729;SDS011;10526;50.850;12.928;2023-06-14T08:54:53;8.57;;;3.20;;
20729;SDS011;10526;50.850;12.928;2023-06-14T08:59:15;6.85;;;3.22;;
20729;SDS011;10526;50.850;12.928;2023-06-14T09:03:40;7.30;;;2.50;;
20729;SDS011;10526;50.850;12.928;2023-06-14T09:08:03;7.40;;;2.70;;
20729;SDS011;10526;50.850;12.928;2023-06-14T09:12:26;7.57;;;3.13;;
20729;SDS011;10526;50.850;12.928;2023-06-14T09:16:52;9.43;;;3.47;;
20729;SDS011;10526;50.850;12.928;2023-06-14T09:21:18;8.98;;;3.20;;
20729;SDS011;10526;50.850;12.928;2023-06-14T09:25:43;7.95;;;3.45;;
20729;SDS011;10526;50.850;12.928;2023-06-14T09:30:10;9.18;;;2.97;;
20729;SDS011;10526;50.850;12.928;2023-06-14T09:34:34;5.82;;;3.10;;
20729;SDS011;10526;50.850;12.928;2023-06-14T09:38:58;9.00;;;3.42;;
20729;SDS011;10526;50.850;12.928;2023-06-14T09:43:28;7.82;;;3.30;;
20729;SDS011;10526;50.850;12.928;2023-06-14T09:47:51;5.75;;;2.92;;
20729;SDS011;10526;50.850;12.928;2023-06-14T09:52:27;7.25;;;3.55;;
20729;SDS011;10526;50.850;12.928;2023-06-14T09:56:49;7.50;;;3.10;;
20729;SDS011;10526;50.850;12.928;2023-06-14T10:01:13;5.93;;;2.90;;
20729;SDS011;10526;50.850;12.928;2023-06-14T10:05:35;7.00;;;3.30;;
20729;SDS011;10526;50.850;12.928;2023-06-14T10:09:58;6.03;;;3.10;;
20729;SDS011;10526;50.850;12.928;2023-06-14T10:14:21;7.97;;;3.15;;
20729;SDS011;10526;50.850;12.928;2023-06-14T10:23:37;8.55;;;2.97;;
20729;SDS011;10526;50.850;12.928;2023-06-14T10:37:28;6.53;;;2.85;;
20729;SDS011;10526;50.850;12.928;2023-06-14T10:41:54;8.05;;;2.55;;
20729;SDS011;10526;50.850;12.928;2023-06-14T10:46:18;6.07;;;2.85;;
20729;SDS011;10526;50.850;12.928;2023-06-14T10:50:44;3.58;;;2.30;;
20729;SDS011;10526;50.850;12.928;2023-06-14T10:55:14;8.85;;;2.78;;
20729;SDS011;10526;50.850;12.928;2023-06-14T10:59:40;4.03;;;2.50;;
20729;SDS011;10526;50.850;12.928;2023-06-14T11:04:06;4.95;;;2.40;;
20729;SDS011;10526;50.850;12.928;2023-06-14T11:13:29;6.13;;;3.20;;
20729;SDS011;10526;50.850;12.928;2023-06-14T11:17:52;6.35;;;2.63;;
20729;SDS011;10526;50.850;12.928;2023-06-14T11:22:15;10.35;;;3.08;;
20729;SDS011;10526;50.850;12.928;2023-06-14T11:26:38;5.63;;;2.70;;
20729;SDS011;10526;50.850;12.928;2023-06-14T11:31:02;6.97;;;2.53;;
20729;SDS011;10526;50.850;12.928;2023-06-14T11:35:25;8.40;;;2.58;;
20729;SDS011;10526;50.850;12.928;2023-06-14T11:39:48;7.03;;;2.10;;
20729;SDS011;10526;50.850;12.928;2023-06-14T11:44:10;6.93;;;2.67;;
20729;SDS011;10526;50.850;12.928;2023-06-14T11:48:40;4.93;;;2.47;;
20729;SDS011;10526;50.850;12.928;2023-06-14T11:53:04;7.13;;;2.60;;
20729;SDS011;10526;50.850;12.928;2023-06-14T11:57:34;8.70;;;2.83;;
20729;SDS011;10526;50.850;12.928;2023-06-14T12:01:57;9.27;;;2.47;;
20729;SDS011;10526;50.850;12.928;2023-06-14T12:06:26;5.78;;;2.47;;
20729;SDS011;10526;50.850;12.928;2023-06-14T12:10:50;6.00;;;2.70;;
20729;SDS011;10526;50.850;12.928;2023-06-14T12:15:13;7.55;;;2.53;;
20729;SDS011;10526;50.850;12.928;2023-06-14T12:19:42;6.15;;;2.65;;
20729;SDS011;10526;50.850;12.928;2023-06-14T12:24:05;6.15;;;2.42;;
20729;SDS011;10526;50.850;12.928;2023-06-14T12:28:30;8.82;;;2.80;;
20729;SDS011;10526;50.850;12.928;2023-06-14T12:32:53;7.18;;;2.83;;
20729;SDS011;10526;50.850;12.928;2023-06-14T12:37:15;8.68;;;2.90;;
20729;SDS011;10526;50.850;12.928;2023-06-14T12:41:37;8.27;;;2.83;;
20729;SDS011;10526;50.850;12.928;2023-06-14T12:45:59;8.57;;;2.83;;
20729;SDS011;10526;50.850;12.928;2023-06-14T12:50:22;5.22;;;2.70;;
20729;SDS011;10526;50.850;12.928;2023-06-14T12:54:47;6.35;;;3.10;;
20729;SDS011;10526;50.850;12.928;2023-06-14T12:59:09;8.88;;;3.17;;
20729;SDS011;10526;50.850;12.928;2023-06-14T13:03:31;5.28;;;2.78;;
20729;SDS011;10526;50.850;12.928;2023-06-14T13:07:55;7.22;;;3.50;;
20729;SDS011;10526;50.850;12.928;2023-06-14T13:12:17;6.82;;;3.25;;
20729;SDS011;10526;50.850;12.928;2023-06-14T13:16:39;6.85;;;3.22;;
20729;SDS011;10526;50.850;12.928;2023-06-14T13:21:01;7.35;;;2.83;;
20729;SDS011;10526;50.850;12.928;2023-06-14T13:25:23;8.32;;;3.47;;
20729;SDS011;10526;50.850;12.928;2023-06-14T13:29:46;7.22;;;3.10;;
20729;SDS011;10526;50.850;12.928;2023-06-14T13:34:08;9.57;;;3.00;;
20729;SDS011;10526;50.850;12.928;2023-06-14T13:38:31;8.88;;;3.75;;
20729;SDS011;10526;50.850;12.928;2023-06-14T13:42:53;9.35;;;4.10;;
20729;SDS011;10526;50.850;12.928;2023-06-14T13:47:15;9.32;;;4.00;;
20729;SDS011;10526;50.850;12.928;2023-06-14T13:51:37;8.25;;;3.92;;
20729;SDS011;10526;50.850;12.928;2023-06-14T13:55:59;9.82;;;4.30;;
20729;SDS011;10526;50.850;12.928;2023-06-14T14:00:21;7.07;;;3.78;;
20729;SDS011;10526;50.850;12.928;2023-06-14T14:04:44;10.18;;;4.07;;
20729;SDS011;10526;50.850;12.928;2023-06-14T14:09:12;7.57;;;3.63;;
20729;SDS011;10526;50.850;12.928;2023-06-14T14:13:35;9.65;;;3.83;;
20729;SDS011;10526;50.850;12.928;2023-06-14T14:17:58;14.60;;;3.92;;
20729;SDS011;10526;50.850;12.928;2023-06-14T14:22:20;9.50;;;3.72;;
20729;SDS011;10526;50.850;12.928;2023-06-14T14:26:42;10.50;;;3.92;;
20729;SDS011;10526;50.850;12.928;2023-06-14T14:31:04;7.35;;;2.90;;
20729;SDS011;10526;50.850;12.928;2023-06-14T14:35:27;7.93;;;3.47;;
20729;SDS011;10526;50.850;12.928;2023-06-14T14:39:51;7.13;;;3.53;;
20729;SDS011;10526;50.850;12.928;2023-06-14T14:44:13;10.52;;;3.33;;
20729;SDS011;10526;50.850;12.928;2023-06-14T14:48:35;7.45;;;3.17;;
20729;SDS011;10526;50.850;12.928;2023-06-14T14:52:57;7.55;;;3.15;;
20729;SDS011;10526;50.850;12.928;2023-06-14T14:57:19;7.43;;;3.45;;
20729;SDS011;10526;50.850;12.928;2023-06-14T15:01:43;8.60;;;3.47;;
20729;SDS011;10526;50.850;12.928;2023-06-14T15:06:05;7.20;;;3.22;;
20729;SDS011;10526;50.850;12.928;2023-06-14T15:10:27;6.55;;;3.38;;
20729;SDS011;10526;50.850;12.928;2023-06-14T15:14:50;10.30;;;3.63;;
20729;SDS011;10526;50.850;12.928;2023-06-14T15:19:17;6.10;;;2.95;;
20729;SDS011;10526;50.850;12.928;2023-06-14T15:23:39;6.63;;;3.20;;
20729;SDS011;10526;50.850;12.928;2023-06-14T15:28:01;6.60;;;3.25;;
20729;SDS011;10526;50.850;12.928;2023-06-14T15:32:27;6.47;;;3.10;;
20729;SDS011;10526;50.850;12.928;2023-06-14T15:36:49;9.75;;;4.38;;
20729;SDS011;10526;50.850;12.928;2023-06-14T15:41:14;9.27;;;4.05;;
20729;SDS011;10526;50.850;12.928;2023-06-14T15:45:45;7.35;;;3.30;;
20729;SDS011;10526;50.850;12.928;2023-06-14T15:50:08;7.65;;;3.17;;
20729;SDS011;10526;50.850;12.928;2023-06-14T15:54:31;8.43;;;3.05;;
20729;SDS011;10526;50.850;12.928;2023-06-14T15:58:53;7.40;;;2.85;;
20729;SDS011;10526;50.850;12.928;2023-06-14T16:03:16;7.68;;;3.30;;
20729;SDS011;10526;50.850;12.928;2023-06-14T16:07:39;7.05;;;3.67;;
20729;SDS011;10526;50.850;12.928;2023-06-14T16:12:01;6.22;;;2.70;;
20729;SDS011;10526;50.850;12.928;2023-06-14T16:16:23;5.78;;;2.50;;
20729;SDS011;10526;50.850;12.928;2023-06-14T16:20:46;4.57;;;2.13;;
20729;SDS011;10526;50.850;12.928;2023-06-14T16:25:09;5.90;;;2.20;;
20729;SDS011;10526;50.850;12.928;2023-06-14T16:29:30;7.53;;;2.63;;
20729;SDS011;10526;50.850;12.928;2023-06-14T16:33:53;6.95;;;3.25;;
20729;SDS011;10526;50.850;12.928;2023-06-14T16:38:18;9.60;;;3.20;;
20729;SDS011;10526;50.850;12.928;2023-06-14T16:42:42;8.70;;;2.78;;
20729;SDS011;10526;50.850;12.928;2023-06-14T16:47:05;17.85;;;5.95;;
20729;SDS011;10526;50.850;12.928;2023-06-14T16:51:29;7.43;;;2.70;;
20729;SDS011;10526;50.850;12.928;2023-06-14T16:55:51;11.25;;;3.42;;
20729;SDS011;10526;50.850;12.928;2023-06-14T17:00:13;3.80;;;2.30;;
20729;SDS011;10526;50.850;12.928;2023-06-14T17:04:36;6.10;;;3.00;;
20729;SDS011;10526;50.850;12.928;2023-06-14T17:08:59;8.15;;;2.67;;
20729;SDS011;10526;50.850;12.928;2023-06-14T17:13:21;6.35;;;2.70;;
20729;SDS011;10526;50.850;12.928;2023-06-14T17:17:43;6.25;;;2.78;;
20729;SDS011;10526;50.850;12.928;2023-06-14T17:22:05;8.52;;;3.25;;
20729;SDS011;10526;50.850;12.928;2023-06-14T17:26:27;10.10;;;3.10;;
20729;SDS011;10526;50.850;12.928;2023-06-14T17:30:49;9.80;;;3.30;;
20729;SDS011;10526;50.850;12.928;2023-06-14T17:35:12;7.68;;;3.10;;
20729;SDS011;10526;50.850;12.928;2023-06-14T17:39:35;8.25;;;3.58;;
20729;SDS011;10526;50.850;12.928;2023-06-14T17:43:57;7.70;;;2.88;;
20729;SDS011;10526;50.850;12.928;2023-06-14T17:48:19;13.95;;;4.13;;
20729;SDS011;10526;50.850;12.928;2023-06-14T17:52:41;10.13;;;3.53;;
20729;SDS011;10526;50.850;12.928;2023-06-14T17:57:03;8.02;;;3.00;;
20729;SDS011;10526;50.850;12.928;2023-06-14T18:01:26;5.47;;;2.88;;
20729;SDS011;10526;50.850;12.928;2023-06-14T18:05:48;11.48;;;3.45;;
20729;SDS011;10526;50.850;12.928;2023-06-14T18:10:11;8.23;;;3.20;;
20729;SDS011;10526;50.850;12.928;2023-06-14T18:14:37;9.57;;;3.42;;
20729;SDS011;10526;50.850;12.928;2023-06-14T18:18:59;8.23;;;3.13;;
20729;SDS011;10526;50.850;12.928;2023-06-14T18:23:21;8.07;;;3.08;;
20729;SDS011;10526;50.850;12.928;2023-06-14T18:27:44;6.47;;;2.78;;
20729;SDS011;10526;50.850;12.928;2023-06-14T18:32:07;11.02;;;3.13;;
20729;SDS011;10526;50.850;12.928;2023-06-14T18:36:29;6.32;;;2.90;;
20729;SDS011;10526;50.850;12.928;2023-06-14T18:40:52;7.82;;;2.78;;
20729;SDS011;10526;50.850;12.928;2023-06-14T18:45:14;10.35;;;3.85;;
20729;SDS011;10526;50.850;12.928;2023-06-14T18:49:37;8.57;;;3.40;;
20729;SDS011;10526;50.850;12.928;2023-06-14T18:54:00;13.05;;;3.30;;
20729;SDS011;10526;50.850;12.928;2023-06-14T18:58:24;7.78;;;3.75;;
20729;SDS011;10526;50.850;12.928;2023-06-14T19:02:46;11.05;;;3.22;;
20729;SDS011;10526;50.850;12.928;2023-06-14T19:07:09;10.43;;;3.20;;
20729;SDS011;10526;50.850;12.928;2023-06-14T19:11:31;20.95;;;4.15;;
20729;SDS011;10526;50.850;12.928;2023-06-14T19:15:53;9.05;;;3.85;;
20729;SDS011;10526;50.850;12.928;2023-06-14T19:20:16;11.35;;;3.50;;
20729;SDS011;10526;50.850;12.928;2023-06-14T19:24:38;10.80;;;3.28;;
20729;SDS011;10526;50.850;12.928;2023-06-14T19:29:00;6.43;;;3.17;;
20729;SDS011;10526;50.850;12.928;2023-06-14T19:33:23;6.95;;;3.17;;
20729;SDS011;10526;50.850;12.928;2023-06-14T19:37:45;8.30;;;3.70;;
20729;SDS011;10526;50.850;12.928;2023-06-14T19:42:07;8.02;;;3.63;;
20729;SDS011;10526;50.850;12.928;2023-06-14T19:46:29;7.93;;;3.70;;
20729;SDS011;10526;50.850;12.928;2023-06-14T19:50:51;12.70;;;3.28;;
20729;SDS011;10526;50.850;12.928;2023-06-14T19:55:13;14.95;;;4.28;;
20729;SDS011;10526;50.850;12.928;2023-06-14T19:59:36;13.65;;;3.75;;
20729;SDS011;10526;50.850;12.928;2023-06-14T20:03:59;10.73;;;4.10;;
20729;SDS011;10526;50.850;12.928;2023-06-14T20:08:21;7.45;;;3.30;;
20729;SDS011;10526;50.850;12.928;2023-06-14T20:12:45;8.57;;;3.92;;
20729;SDS011;10526;50.850;12.928;2023-06-14T20:17:07;8.52;;;3.97;;
20729;SDS011;10526;50.850;12.928;2023-06-14T20:21:30;8.05;;;3.85;;
20729;SDS011;10526;50.850;12.928;2023-06-14T20:25:52;8.82;;;4.45;;
20729;SDS011;10526;50.850;12.928;2023-06-14T20:30:14;12.23;;;4.40;;
20729;SDS011;10526;50.850;12.928;2023-06-14T20:34:37;11.20;;;5.07;;
20729;SDS011;10526;50.850;12.928;2023-06-14T20:38:59;12.50;;;4.45;;
20729;SDS011;10526;50.850;12.928;2023-06-14T20:43:21;15.18;;;6.25;;
20729;SDS011;10526;50.850;12.928;2023-06-14T20:47:43;16.83;;;6.78;;
20729;SDS011;10526;50.850;12.928;2023-06-14T20:52:07;9.73;;;4.68;;
20729;SDS011;10526;50.850;12.928;2023-06-14T20:56:29;11.50;;;4.85;;
20729;SDS011;10526;50.850;12.928;2023-06-14T21:00:52;11.93;;;5.07;;
20729;SDS011;10526;50.850;12.928;2023-06-14T21:05:14;13.13;;;4.60;;
20729;SDS011;10526;50.850;12.928;2023-06-14T21:09:36;14.25;;;5.65;;
20729;SDS011;10526;50.850;12.928;2023-06-14T21:19:03;14.55;;;6.03;;
20729;SDS011;10526;50.850;12.928;2023-06-14T21:23:26;10.18;;;4.70;;
20729;SDS011;10526;50.850;12.928;2023-06-14T21:27:48;15.25;;;5.65;;
20729;SDS011;10526;50.850;12.928;2023-06-14T21:32:10;11.18;;;4.80;;
20729;SDS011;10526;50.850;12.928;2023-06-14T21:36:32;11.02;;;5.55;;
20729;SDS011;10526;50.850;12.928;2023-06-14T21:40:56;13.70;;;5.65;;
20729;SDS011;10526;50.850;12.928;2023-06-14T21:45:18;13.85;;;5.45;;
20729;SDS011;10526;50.850;12.928;2023-06-14T21:49:40;10.40;;;4.50;;
20729;SDS011;10526;50.850;12.928;2023-06-14T21:54:04;10.48;;;4.72;;
20729;SDS011;10526;50.850;12.928;2023-06-14T21:58:26;19.90;;;5.25;;
20729;SDS011;10526;50.850;12.928;2023-06-14T22:02:48;10.95;;;5.25;;
20729;SDS011;10526;50.850;12.928;2023-06-14T22:07:11;9.90;;;4.90;;
20729;SDS011;10526;50.850;12.928;2023-06-14T22:11:33;13.45;;;5.78;;
20729;SDS011;10526;50.850;12.928;2023-06-14T22:15:55;11.48;;;5.57;;
20729;SDS011;10526;50.850;12.928;2023-06-14T22:20:18;13.00;;;5.43;;
20729;SDS011;10526;50.850;12.928;2023-06-14T22:24:40;12.57;;;5.13;;
20729;SDS011;10526;50.850;12.928;2023-06-14T22:29:02;11.57;;;5.22;;
20729;SDS011;10526;50.850;12.928;2023-06-14T22:33:27;13.98;;;5.80;;
20729;SDS011;10526;50.850;12.928;2023-06-14T22:37:49;12.35;;;5.15;;
20729;SDS011;10526;50.850;12.928;2023-06-14T22:42:12;11.90;;;5.30;;
20729;SDS011;10526;50.850;12.928;2023-06-14T22:46:39;10.82;;;5.60;;
20729;SDS011;10526;50.850;12.928;2023-06-14T22:51:01;14.40;;;6.22;;
20729;SDS011;10526;50.850;12.928;2023-06-14T22:55:23;18.05;;;6.53;;
20729;SDS011;10526;50.850;12.928;2023-06-14T22:59:48;14.18;;;6.70;;
20729;SDS011;10526;50.850;12.928;2023-06-14T23:04:13;15.52;;;6.85;;
20729;SDS011;10526;50.850;12.928;2023-06-14T23:08:36;12.32;;;6.30;;
20729;SDS011;10526;50.850;12.928;2023-06-14T23:13:04;14.70;;;7.28;;
20729;SDS011;10526;50.850;12.928;2023-06-14T23:17:26;15.18;;;6.28;;
20729;SDS011;10526;50.850;12.928;2023-06-14T23:21:52;14.48;;;7.85;;
20729;SDS011;10526;50.850;12.928;2023-06-14T23:26:14;14.88;;;7.20;;
20729;SDS011;10526;50.850;12.928;2023-06-14T23:30:38;13.70;;;5.90;;
20729;SDS011;10526;50.850;12.928;2023-06-14T23:35:03;12.52;;;6.35;;
20729;SDS011;10526;50.850;12.928;2023-06-14T23:39:28;15.20;;;6.75;;
20729;SDS011;10526;50.850;12.928;2023-06-14T23:43:51;17.00;;;6.75;;
20729;SDS011;10526;50.850;12.928;2023-06-14T23:48:13;13.50;;;7.78;;
20729;SDS011;10526;50.850;12.928;2023-06-14T23:52:36;13.35;;;6.90;;
20729;SDS011;10526;50.850;12.928;2023-06-14T23:56:59;12.73;;;6.47;;
